createdAt,value
2022-09-01T00:13:58.021Z,100.00
2022-09-01T00:17:31.810Z,100.00
2022-09-01T00:21:05.741Z,100.00
2022-09-01T00:24:39.702Z,100.00
2022-09-01T00:38:04.962Z,100.00
2022-09-01T00:41:51.210Z,100.00
2022-09-01T00:45:25.471Z,100.00
2022-09-01T00:58:47.681Z,100.00
2022-09-01T01:02:21.292Z,100.00
2022-09-01T01:05:59.290Z,100.00
2022-09-01T01:15:58.200Z,100.00
2022-09-01T01:19:59.010Z,100.00
2022-09-01T01:23:39.493Z,100.00
2022-09-01T01:40:35.754Z,100.00
2022-09-01T01:44:12.431Z,100.00
2022-09-01T01:48:01.990Z,100.00
2022-09-01T02:01:29.605Z,100.00
2022-09-01T02:05:05.511Z,100.00
2022-09-01T02:08:41.642Z,100.00
2022-09-01T02:29:04.760Z,100.00
2022-09-01T02:32:38.183Z,100.00
2022-09-01T02:36:14.600Z,100.00
2022-09-01T02:39:49.071Z,100.00
2022-09-01T02:43:14.540Z,100.00
2022-09-01T02:46:49.041Z,100.00
2022-09-01T02:50:23.080Z,100.00
2022-09-01T03:07:14.256Z,100.00
2022-09-01T03:10:50.570Z,100.00
2022-09-01T03:14:26.928Z,100.00
2022-09-01T03:18:01.340Z,100.00
2022-09-01T03:35:23.150Z,100.00
2022-09-01T03:38:57.370Z,100.00
2022-09-01T03:42:31.510Z,100.00
2022-09-01T03:46:05.660Z,100.00
2022-09-01T03:49:40.970Z,100.00
2022-09-01T03:53:16.410Z,100.00
2022-09-01T04:10:22.980Z,100.00
2022-09-01T04:13:56.773Z,100.00
2022-09-01T04:17:46.878Z,100.00
2022-09-01T04:21:14.461Z,100.00
2022-09-01T04:27:41.033Z,100.00
2022-09-01T04:31:15.262Z,100.00
2022-09-01T04:34:50.137Z,100.00
2022-09-01T04:38:23.801Z,100.00
2022-09-01T04:41:57.911Z,100.00
2022-09-01T04:55:25.246Z,100.00
2022-09-01T04:58:59.956Z,100.00
2022-09-01T05:23:02.375Z,100.00
2022-09-01T05:26:34.300Z,100.00
2022-09-01T05:30:08.518Z,100.00
2022-09-01T05:43:50.396Z,100.00
2022-09-01T05:47:21.549Z,100.00
2022-09-01T05:50:56.098Z,100.00
2022-09-01T05:54:28.860Z,100.00
2022-09-01T06:00:59.891Z,100.00
2022-09-01T06:04:33.440Z,100.00
2022-09-01T06:08:11.460Z,100.00
2022-09-01T06:21:44.561Z,100.00
2022-09-01T06:25:23.239Z,100.00
2022-09-01T06:29:00.651Z,100.00
2022-09-01T06:42:27.101Z,100.00
2022-09-01T06:46:03.007Z,100.00
2022-09-01T06:49:37.581Z,100.00
2022-09-01T07:10:29.448Z,100.00
2022-09-01T07:14:21.017Z,100.00
2022-09-01T07:17:57.031Z,100.00
2022-09-01T07:21:39.215Z,100.00
2022-09-01T07:25:18.221Z,99.66
2022-09-01T07:29:00.976Z,99.52
2022-09-01T07:54:37.879Z,87.06
2022-09-01T07:58:12.046Z,82.36
2022-09-01T08:01:45.920Z,80.28
2022-09-01T08:08:29.650Z,75.46
2022-09-01T08:12:03.711Z,74.49
2022-09-01T08:15:41.012Z,72.09
2022-09-01T08:19:34.760Z,71.70
2022-09-01T08:23:06.273Z,72.73
2022-09-01T08:26:40.621Z,71.91
2022-09-01T08:30:16.964Z,70.29
2022-09-01T08:33:52.652Z,66.54
2022-09-01T08:47:28.819Z,70.31
2022-09-01T08:51:17.122Z,70.59
2022-09-01T08:55:15.942Z,62.96
2022-09-01T08:58:50.630Z,65.35
2022-09-01T09:02:45.470Z,66.16
2022-09-01T09:06:28.266Z,63.30
2022-09-01T09:19:50.716Z,62.52
2022-09-01T09:23:31.628Z,62.68
2022-09-01T09:40:19.190Z,61.36
2022-09-01T09:43:59.743Z,58.10
2022-09-01T09:47:44.490Z,56.20
2022-09-01T09:51:23.761Z,55.91
2022-09-01T09:55:07.429Z,55.51
2022-09-01T09:58:41.992Z,56.26
2022-09-01T10:19:21.552Z,48.90
2022-09-01T10:22:53.556Z,47.22
2022-09-01T10:26:27.568Z,48.64
2022-09-01T10:30:20.317Z,45.87
2022-09-01T10:47:25.863Z,46.96
2022-09-01T10:51:38.269Z,44.54
2022-09-01T10:55:23.986Z,44.59
2022-09-01T11:03:42.091Z,43.67
2022-09-01T11:08:03.034Z,44.36
2022-09-01T11:21:28.544Z,44.44
2022-09-01T11:25:39.921Z,45.23
2022-09-01T11:33:43.466Z,44.43
2022-09-01T11:37:22.210Z,45.64
2022-09-01T11:41:08.649Z,43.58
2022-09-01T11:51:26.542Z,42.67
2022-09-01T11:55:01.032Z,42.25
2022-09-01T11:58:39.999Z,42.53
2022-09-01T12:02:23.574Z,42.77
2022-09-01T12:16:06.876Z,42.28
2022-09-01T12:19:39.000Z,42.65
2022-09-01T12:23:26.506Z,43.80
2022-09-01T12:27:05.483Z,42.98
2022-09-01T12:30:43.501Z,44.61
2022-09-01T12:44:35.451Z,43.23
2022-09-01T12:48:07.141Z,43.10
2022-09-01T12:51:37.995Z,44.21
2022-09-01T12:58:15.461Z,41.97
2022-09-01T13:01:51.030Z,42.16
2022-09-01T13:05:42.653Z,41.25
2022-09-01T13:09:22.320Z,41.51
2022-09-01T13:12:56.352Z,42.15
2022-09-01T13:16:30.332Z,41.92
2022-09-01T13:19:54.020Z,43.03
2022-09-01T13:23:27.766Z,41.43
2022-09-01T13:51:39.770Z,44.51
2022-09-01T13:55:16.490Z,45.60
2022-09-01T13:58:52.230Z,44.23
2022-09-01T14:29:32.641Z,46.41
2022-09-01T14:33:09.920Z,47.55
2022-09-01T14:36:45.998Z,46.44
2022-09-01T14:53:39.865Z,44.48
2022-09-01T14:57:37.798Z,44.68
2022-09-01T15:01:32.806Z,45.09
2022-09-01T15:14:58.761Z,46.76
2022-09-01T15:18:32.454Z,47.93
2022-09-01T15:22:07.973Z,48.06
2022-09-01T15:35:47.700Z,50.13
2022-09-01T15:39:18.403Z,48.92
2022-09-01T15:42:50.815Z,48.58
2022-09-01T15:53:24.601Z,46.52
2022-09-01T15:56:58.631Z,48.59
2022-09-01T16:00:33.396Z,48.37
2022-09-01T16:04:08.602Z,50.12
2022-09-01T16:07:41.709Z,50.26
2022-09-01T16:28:09.249Z,57.53
2022-09-01T16:31:45.131Z,58.54
2022-09-01T16:35:28.688Z,59.37
2022-09-01T16:42:08.161Z,59.87
2022-09-01T16:45:54.731Z,61.62
2022-09-01T16:49:35.011Z,61.37
2022-09-01T16:53:34.056Z,61.06
2022-09-01T17:13:51.781Z,65.37
2022-09-01T17:17:43.531Z,66.82
2022-09-01T17:21:22.693Z,67.65
2022-09-01T17:28:44.642Z,67.53
2022-09-01T17:32:35.161Z,66.50
2022-09-01T17:36:18.284Z,66.69
2022-09-01T17:40:01.573Z,66.59
2022-09-01T17:43:49.257Z,66.21
2022-09-01T17:57:24.589Z,66.43
2022-09-01T18:01:11.224Z,68.07
2022-09-01T18:05:01.800Z,67.23
2022-09-01T18:18:37.511Z,66.19
2022-09-01T18:22:23.219Z,67.06
2022-09-01T18:26:05.402Z,67.72
2022-09-01T18:43:31.869Z,70.04
2022-09-01T18:47:02.531Z,72.38
2022-09-01T18:50:43.745Z,73.22
2022-09-01T19:00:56.252Z,73.59
2022-09-01T19:04:40.105Z,74.40
2022-09-01T19:08:30.051Z,75.50
2022-09-01T19:12:19.402Z,75.81
2022-09-01T19:29:15.936Z,79.03
2022-09-01T19:32:50.631Z,82.50
2022-09-01T19:39:10.669Z,83.16
2022-09-01T19:42:51.591Z,83.42
2022-09-01T19:46:32.218Z,82.75
2022-09-01T20:03:19.534Z,81.69
2022-09-01T20:07:00.654Z,83.37
2022-09-01T20:10:56.587Z,82.77
2022-09-01T20:15:01.322Z,83.57
2022-09-01T20:18:39.572Z,83.39
2022-09-01T20:35:39.844Z,83.06
2022-09-01T20:39:35.470Z,83.90
2022-09-01T20:43:19.063Z,85.08
2022-09-01T21:00:28.958Z,88.44
2022-09-01T21:04:12.080Z,90.30
2022-09-01T21:08:08.901Z,93.88
2022-09-01T21:21:48.551Z,96.85
2022-09-01T21:25:22.386Z,99.59
2022-09-01T21:29:02.521Z,99.78
2022-09-01T21:42:22.850Z,98.40
2022-09-01T21:46:00.884Z,99.19
2022-09-01T21:49:35.534Z,100.00
2022-09-01T22:04:01.819Z,98.78
2022-09-01T22:07:35.609Z,99.80
2022-09-01T22:11:12.051Z,99.75
2022-09-01T22:24:37.120Z,97.66
2022-09-01T22:28:11.249Z,99.44
2022-09-01T22:31:39.800Z,99.18
2022-09-01T22:35:16.593Z,99.09
2022-09-01T22:52:22.148Z,97.76
2022-09-01T22:55:53.511Z,99.12
2022-09-01T22:59:24.792Z,99.55
2022-09-01T23:02:58.441Z,100.00
2022-09-01T23:16:16.050Z,100.00
2022-09-01T23:19:49.790Z,100.00
2022-09-01T23:23:23.580Z,100.00
2022-09-01T23:36:52.439Z,99.94
2022-09-01T23:40:25.903Z,100.00
2022-09-01T23:44:01.640Z,100.00
2022-09-01T23:47:36.321Z,100.00
2022-09-01T23:51:14.408Z,100.00
2022-09-01T23:54:49.350Z,100.00
2022-09-01T23:58:26.174Z,100.00
